sensor_id;sensor_type;location;lat;lon;timestamp;P1;durP1;ratioP1;P2;durP2;ratioP2
1811;SDS011;904;47.814;11.134;2022-12-11T00:00:21;25.27;;;16.67;;
1811;SDS011;904;47.814;11.134;2022-12-11T00:02:49;25.55;;;15.55;;
1811;SDS011;904;47.814;11.134;2022-12-11T00:05:20;24.15;;;14.38;;
1811;SDS011;904;47.814;11.134;2022-12-11T00:07:48;22.20;;;14.77;;
1811;SDS011;904;47.814;11.134;2022-12-11T00:10:15;24.55;;;14.27;;
1811;SDS011;904;47.814;11.134;2022-12-11T00:12:43;24.58;;;14.30;;
1811;SDS011;904;47.814;11.134;2022-12-11T00:15:10;23.83;;;14.07;;
1811;SDS011;904;47.814;11.134;2022-12-11T00:17:37;24.35;;;15.35;;
1811;SDS011;904;47.814;11.134;2022-12-11T00:20:05;23.30;;;14.70;;
1811;SDS011;904;47.814;11.134;2022-12-11T00:22:38;22.05;;;15.40;;
1811;SDS011;904;47.814;11.134;2022-12-11T00:25:06;20.50;;;14.30;;
1811;SDS011;904;47.814;11.134;2022-12-11T00:27:34;21.45;;;14.30;;
1811;SDS011;904;47.814;11.134;2022-12-11T00:30:02;22.58;;;15.05;;
1811;SDS011;904;47.814;11.134;2022-12-11T00:32:32;26.33;;;15.80;;
1811;SDS011;904;47.814;11.134;2022-12-11T00:35:00;23.27;;;14.15;;
1811;SDS011;904;47.814;11.134;2022-12-11T00:37:27;22.52;;;14.38;;
1811;SDS011;904;47.814;11.134;2022-12-11T00:39:56;21.48;;;14.55;;
1811;SDS011;904;47.814;11.134;2022-12-11T00:42:23;19.35;;;13.90;;
1811;SDS011;904;47.814;11.134;2022-12-11T00:44:51;20.75;;;12.57;;
1811;SDS011;904;47.814;11.134;2022-12-11T00:47:20;23.75;;;13.00;;
1811;SDS011;904;47.814;11.134;2022-12-11T00:49:47;22.58;;;13.48;;
1811;SDS011;904;47.814;11.134;2022-12-11T00:52:15;22.42;;;13.75;;
1811;SDS011;904;47.814;11.134;2022-12-11T00:54:42;22.92;;;15.13;;
1811;SDS011;904;47.814;11.134;2022-12-11T00:57:11;20.98;;;14.00;;
1811;SDS011;904;47.814;11.134;2022-12-11T00:59:39;23.27;;;13.75;;
1811;SDS011;904;47.814;11.134;2022-12-11T01:02:06;23.25;;;14.43;;
1811;SDS011;904;47.814;11.134;2022-12-11T01:04:34;17.17;;;12.00;;
1811;SDS011;904;47.814;11.134;2022-12-11T01:07:01;24.58;;;14.40;;
1811;SDS011;904;47.814;11.134;2022-12-11T01:09:29;23.88;;;13.68;;
1811;SDS011;904;47.814;11.134;2022-12-11T01:12:15;18.05;;;13.18;;
1811;SDS011;904;47.814;11.134;2022-12-11T01:14:42;23.92;;;15.07;;
1811;SDS011;904;47.814;11.134;2022-12-11T01:17:09;23.58;;;13.43;;
1811;SDS011;904;47.814;11.134;2022-12-11T01:19:37;22.25;;;13.27;;
1811;SDS011;904;47.814;11.134;2022-12-11T01:22:04;25.20;;;14.55;;
1811;SDS011;904;47.814;11.134;2022-12-11T01:24:32;22.25;;;14.05;;
1811;SDS011;904;47.814;11.134;2022-12-11T01:26:59;23.17;;;15.88;;
1811;SDS011;904;47.814;11.134;2022-12-11T01:29:28;24.77;;;14.80;;
1811;SDS011;904;47.814;11.134;2022-12-11T01:31:55;26.83;;;16.42;;
1811;SDS011;904;47.814;11.134;2022-12-11T01:34:22;19.85;;;13.85;;
1811;SDS011;904;47.814;11.134;2022-12-11T01:36:50;22.95;;;13.60;;
1811;SDS011;904;47.814;11.134;2022-12-11T01:39:18;25.73;;;13.23;;
1811;SDS011;904;47.814;11.134;2022-12-11T01:41:45;24.08;;;15.13;;
1811;SDS011;904;47.814;11.134;2022-12-11T01:47:20;25.13;;;15.20;;
1811;SDS011;904;47.814;11.134;2022-12-11T01:49:47;20.25;;;14.18;;
1811;SDS011;904;47.814;11.134;2022-12-11T01:52:15;23.42;;;14.02;;
1811;SDS011;904;47.814;11.134;2022-12-11T01:54:46;21.27;;;14.00;;
1811;SDS011;904;47.814;11.134;2022-12-11T01:57:15;25.90;;;16.98;;
1811;SDS011;904;47.814;11.134;2022-12-11T01:59:43;24.80;;;15.70;;
1811;SDS011;904;47.814;11.134;2022-12-11T02:02:14;23.50;;;15.02;;
1811;SDS011;904;47.814;11.134;2022-12-11T02:04:46;22.85;;;13.80;;
1811;SDS011;904;47.814;11.134;2022-12-11T02:07:14;24.55;;;15.60;;
1811;SDS011;904;47.814;11.134;2022-12-11T02:09:42;26.52;;;15.07;;
1811;SDS011;904;47.814;11.134;2022-12-11T02:12:14;24.67;;;14.10;;
1811;SDS011;904;47.814;11.134;2022-12-11T02:14:51;28.35;;;15.95;;
1811;SDS011;904;47.814;11.134;2022-12-11T02:17:27;22.65;;;13.55;;
1811;SDS011;904;47.814;11.134;2022-12-11T02:20:06;20.83;;;13.98;;
1811;SDS011;904;47.814;11.134;2022-12-11T02:22:46;27.23;;;15.43;;
1811;SDS011;904;47.814;11.134;2022-12-11T02:25:40;25.83;;;13.52;;
1811;SDS011;904;47.814;11.134;2022-12-11T02:28:19;22.77;;;13.15;;
1811;SDS011;904;47.814;11.134;2022-12-11T02:30:52;21.15;;;13.80;;
1811;SDS011;904;47.814;11.134;2022-12-11T02:33:26;22.23;;;14.77;;
1811;SDS011;904;47.814;11.134;2022-12-11T02:35:59;19.80;;;13.35;;
1811;SDS011;904;47.814;11.134;2022-12-11T02:38:30;22.50;;;13.73;;
1811;SDS011;904;47.814;11.134;2022-12-11T02:41:00;22.90;;;13.80;;
1811;SDS011;904;47.814;11.134;2022-12-11T02:43:31;21.83;;;14.15;;
1811;SDS011;904;47.814;11.134;2022-12-11T02:46:02;24.48;;;13.18;;
1811;SDS011;904;47.814;11.134;2022-12-11T02:48:32;19.42;;;13.13;;
1811;SDS011;904;47.814;11.134;2022-12-11T02:51:01;22.00;;;13.65;;
1811;SDS011;904;47.814;11.134;2022-12-11T02:53:31;18.38;;;13.05;;
1811;SDS011;904;47.814;11.134;2022-12-11T02:56:05;23.08;;;14.32;;
1811;SDS011;904;47.814;11.134;2022-12-11T02:58:38;21.25;;;13.05;;
1811;SDS011;904;47.814;11.134;2022-12-11T03:01:11;22.25;;;13.95;;
1811;SDS011;904;47.814;11.134;2022-12-11T03:03:39;22.60;;;13.55;;
1811;SDS011;904;47.814;11.134;2022-12-11T03:06:06;20.27;;;12.43;;
1811;SDS011;904;47.814;11.134;2022-12-11T03:08:39;24.20;;;11.82;;
1811;SDS011;904;47.814;11.134;2022-12-11T03:11:08;21.33;;;12.70;;
1811;SDS011;904;47.814;11.134;2022-12-11T03:13:38;19.88;;;12.05;;
1811;SDS011;904;47.814;11.134;2022-12-11T03:16:09;20.15;;;13.35;;
1811;SDS011;904;47.814;11.134;2022-12-11T03:18:43;20.48;;;13.90;;
1811;SDS011;904;47.814;11.134;2022-12-11T03:21:19;20.40;;;12.60;;
1811;SDS011;904;47.814;11.134;2022-12-11T03:23:51;16.75;;;12.43;;
1811;SDS011;904;47.814;11.134;2022-12-11T03:26:26;21.92;;;13.32;;
1811;SDS011;904;47.814;11.134;2022-12-11T03:28:57;20.10;;;12.95;;
1811;SDS011;904;47.814;11.134;2022-12-11T03:31:28;21.45;;;12.50;;
1811;SDS011;904;47.814;11.134;2022-12-11T03:33:57;20.63;;;14.23;;
1811;SDS011;904;47.814;11.134;2022-12-11T03:36:30;21.90;;;13.90;;
1811;SDS011;904;47.814;11.134;2022-12-11T03:39:00;22.15;;;13.63;;
1811;SDS011;904;47.814;11.134;2022-12-11T03:41:31;21.52;;;13.57;;
1811;SDS011;904;47.814;11.134;2022-12-11T03:44:02;19.58;;;13.55;;
1811;SDS011;904;47.814;11.134;2022-12-11T03:46:30;20.38;;;11.30;;
1811;SDS011;904;47.814;11.134;2022-12-11T03:49:00;20.25;;;12.43;;
1811;SDS011;904;47.814;11.134;2022-12-11T03:51:31;21.70;;;12.90;;
1811;SDS011;904;47.814;11.134;2022-12-11T03:53:59;18.25;;;13.18;;
1811;SDS011;904;47.814;11.134;2022-12-11T03:56:29;26.50;;;13.05;;
1811;SDS011;904;47.814;11.134;2022-12-11T03:58:58;21.25;;;11.80;;
1811;SDS011;904;47.814;11.134;2022-12-11T04:01:27;20.15;;;12.98;;
1811;SDS011;904;47.814;11.134;2022-12-11T04:03:54;20.75;;;13.40;;
1811;SDS011;904;47.814;11.134;2022-12-11T04:06:21;19.95;;;13.25;;
1811;SDS011;904;47.814;11.134;2022-12-11T04:08:49;21.13;;;12.00;;
1811;SDS011;904;47.814;11.134;2022-12-11T04:11:16;21.92;;;13.85;;
1811;SDS011;904;47.814;11.134;2022-12-11T04:14:03;22.40;;;15.18;;
1811;SDS011;904;47.814;11.134;2022-12-11T04:16:50;19.77;;;12.60;;
1811;SDS011;904;47.814;11.134;2022-12-11T04:19:18;20.63;;;11.82;;
1811;SDS011;904;47.814;11.134;2022-12-11T04:22:05;17.48;;;11.82;;
1811;SDS011;904;47.814;11.134;2022-12-11T04:24:52;20.50;;;12.85;;
1811;SDS011;904;47.814;11.134;2022-12-11T04:27:20;21.40;;;11.80;;
1811;SDS011;904;47.814;11.134;2022-12-11T04:30:17;22.48;;;13.45;;
1811;SDS011;904;47.814;11.134;2022-12-11T04:32:47;23.27;;;15.32;;
1811;SDS011;904;47.814;11.134;2022-12-11T04:35:15;20.45;;;12.00;;
1811;SDS011;904;47.814;11.134;2022-12-11T04:37:42;20.15;;;13.13;;
1811;SDS011;904;47.814;11.134;2022-12-11T04:40:11;22.70;;;13.70;;
1811;SDS011;904;47.814;11.134;2022-12-11T04:42:40;21.42;;;14.52;;
1811;SDS011;904;47.814;11.134;2022-12-11T04:45:08;22.10;;;13.43;;
1811;SDS011;904;47.814;11.134;2022-12-11T04:47:36;20.67;;;14.00;;
1811;SDS011;904;47.814;11.134;2022-12-11T04:50:07;23.33;;;13.77;;
1811;SDS011;904;47.814;11.134;2022-12-11T04:52:36;22.33;;;14.50;;
1811;SDS011;904;47.814;11.134;2022-12-11T04:55:04;20.63;;;14.77;;
1811;SDS011;904;47.814;11.134;2022-12-11T04:57:32;24.95;;;15.75;;
1811;SDS011;904;47.814;11.134;2022-12-11T05:00:00;22.90;;;13.95;;
1811;SDS011;904;47.814;11.134;2022-12-11T05:02:28;21.40;;;12.40;;
1811;SDS011;904;47.814;11.134;2022-12-11T05:04:56;22.95;;;14.13;;
1811;SDS011;904;47.814;11.134;2022-12-11T05:07:25;17.85;;;11.57;;
1811;SDS011;904;47.814;11.134;2022-12-11T05:09:52;22.70;;;13.65;;
1811;SDS011;904;47.814;11.134;2022-12-11T05:12:20;19.90;;;12.57;;
1811;SDS011;904;47.814;11.134;2022-12-11T05:14:50;21.02;;;12.88;;
1811;SDS011;904;47.814;11.134;2022-12-11T05:17:18;21.90;;;12.13;;
1811;SDS011;904;47.814;11.134;2022-12-11T05:19:46;19.02;;;12.65;;
1811;SDS011;904;47.814;11.134;2022-12-11T05:22:14;19.08;;;12.13;;
1811;SDS011;904;47.814;11.134;2022-12-11T05:24:44;21.50;;;13.90;;
1811;SDS011;904;47.814;11.134;2022-12-11T05:27:12;24.92;;;13.65;;
1811;SDS011;904;47.814;11.134;2022-12-11T05:29:39;21.27;;;13.88;;
1811;SDS011;904;47.814;11.134;2022-12-11T05:32:07;21.67;;;13.60;;
1811;SDS011;904;47.814;11.134;2022-12-11T05:34:34;22.08;;;13.40;;
1811;SDS011;904;47.814;11.134;2022-12-11T05:37:02;22.80;;;14.95;;
1811;SDS011;904;47.814;11.134;2022-12-11T05:39:38;20.83;;;13.50;;
1811;SDS011;904;47.814;11.134;2022-12-11T05:42:07;22.55;;;13.25;;
1811;SDS011;904;47.814;11.134;2022-12-11T05:44:37;23.15;;;15.35;;
1811;SDS011;904;47.814;11.134;2022-12-11T05:47:05;21.50;;;13.52;;
1811;SDS011;904;47.814;11.134;2022-12-11T05:49:33;25.25;;;15.13;;
1811;SDS011;904;47.814;11.134;2022-12-11T05:52:00;23.27;;;13.85;;
1811;SDS011;904;47.814;11.134;2022-12-11T05:54:27;20.10;;;12.90;;
1811;SDS011;904;47.814;11.134;2022-12-11T05:56:55;22.27;;;14.13;;
1811;SDS011;904;47.814;11.134;2022-12-11T05:59:24;22.30;;;14.00;;
1811;SDS011;904;47.814;11.134;2022-12-11T06:01:51;18.58;;;12.00;;
1811;SDS011;904;47.814;11.134;2022-12-11T06:04:19;21.75;;;12.75;;
1811;SDS011;904;47.814;11.134;2022-12-11T06:06:46;21.83;;;14.27;;
1811;SDS011;904;47.814;11.134;2022-12-11T06:09:14;19.17;;;12.65;;
1811;SDS011;904;47.814;11.134;2022-12-11T06:11:48;21.48;;;13.90;;
1811;SDS011;904;47.814;11.134;2022-12-11T06:14:16;21.13;;;14.45;;
1811;SDS011;904;47.814;11.134;2022-12-11T06:16:45;22.95;;;12.82;;
1811;SDS011;904;47.814;11.134;2022-12-11T06:19:14;22.52;;;13.80;;
1811;SDS011;904;47.814;11.134;2022-12-11T06:21:42;22.35;;;13.25;;
1811;SDS011;904;47.814;11.134;2022-12-11T06:24:13;24.73;;;15.77;;
1811;SDS011;904;47.814;11.134;2022-12-11T06:26:42;22.52;;;13.65;;
1811;SDS011;904;47.814;11.134;2022-12-11T06:29:10;23.05;;;13.40;;
1811;SDS011;904;47.814;11.134;2022-12-11T06:31:37;25.33;;;14.25;;
1811;SDS011;904;47.814;11.134;2022-12-11T06:34:07;20.80;;;13.13;;
1811;SDS011;904;47.814;11.134;2022-12-11T06:36:34;24.60;;;13.65;;
1811;SDS011;904;47.814;11.134;2022-12-11T06:39:02;22.67;;;13.60;;
1811;SDS011;904;47.814;11.134;2022-12-11T06:41:29;21.02;;;12.82;;
1811;SDS011;904;47.814;11.134;2022-12-11T06:43:57;20.92;;;13.88;;
1811;SDS011;904;47.814;11.134;2022-12-11T06:46:24;22.15;;;13.80;;
1811;SDS011;904;47.814;11.134;2022-12-11T06:48:52;26.58;;;16.52;;
1811;SDS011;904;47.814;11.134;2022-12-11T06:51:21;29.60;;;17.15;;
1811;SDS011;904;47.814;11.134;2022-12-11T06:53:49;21.52;;;14.68;;
1811;SDS011;904;47.814;11.134;2022-12-11T06:56:18;22.15;;;14.70;;
1811;SDS011;904;47.814;11.134;2022-12-11T06:58:46;22.23;;;14.15;;
1811;SDS011;904;47.814;11.134;2022-12-11T07:01:15;23.65;;;13.57;;
1811;SDS011;904;47.814;11.134;2022-12-11T07:03:44;21.98;;;12.65;;
1811;SDS011;904;47.814;11.134;2022-12-11T07:06:11;17.70;;;12.70;;
1811;SDS011;904;47.814;11.134;2022-12-11T07:08:40;22.02;;;12.95;;
1811;SDS011;904;47.814;11.134;2022-12-11T07:11:09;18.90;;;11.88;;
1811;SDS011;904;47.814;11.134;2022-12-11T07:13:37;20.52;;;11.85;;
1811;SDS011;904;47.814;11.134;2022-12-11T07:16:06;18.95;;;10.70;;
1811;SDS011;904;47.814;11.134;2022-12-11T07:18:35;17.67;;;11.40;;
1811;SDS011;904;47.814;11.134;2022-12-11T07:21:05;19.35;;;11.38;;
1811;SDS011;904;47.814;11.134;2022-12-11T07:23:33;15.05;;;11.05;;
1811;SDS011;904;47.814;11.134;2022-12-11T07:26:04;19.42;;;12.18;;
1811;SDS011;904;47.814;11.134;2022-12-11T07:28:33;18.10;;;11.35;;
1811;SDS011;904;47.814;11.134;2022-12-11T07:31:03;23.45;;;11.95;;
1811;SDS011;904;47.814;11.134;2022-12-11T07:33:33;20.58;;;11.70;;
1811;SDS011;904;47.814;11.134;2022-12-11T07:36:01;16.92;;;10.95;;
1811;SDS011;904;47.814;11.134;2022-12-11T07:38:35;16.85;;;10.48;;
1811;SDS011;904;47.814;11.134;2022-12-11T07:41:05;18.40;;;11.18;;
1811;SDS011;904;47.814;11.134;2022-12-11T07:43:34;12.40;;;9.20;;
1811;SDS011;904;47.814;11.134;2022-12-11T07:46:02;12.45;;;8.90;;
1811;SDS011;904;47.814;11.134;2022-12-11T07:48:33;14.23;;;9.25;;
1811;SDS011;904;47.814;11.134;2022-12-11T07:51:07;12.98;;;8.68;;
1811;SDS011;904;47.814;11.134;2022-12-11T07:53:35;13.75;;;8.68;;
1811;SDS011;904;47.814;11.134;2022-12-11T07:56:04;12.88;;;7.75;;
1811;SDS011;904;47.814;11.134;2022-12-11T07:58:32;12.55;;;7.75;;
1811;SDS011;904;47.814;11.134;2022-12-11T08:01:03;11.60;;;7.45;;
1811;SDS011;904;47.814;11.134;2022-12-11T08:03:30;11.63;;;7.88;;
1811;SDS011;904;47.814;11.134;2022-12-11T08:05:58;12.57;;;8.90;;
1811;SDS011;904;47.814;11.134;2022-12-11T08:08:36;13.13;;;7.72;;
1811;SDS011;904;47.814;11.134;2022-12-11T08:11:12;11.98;;;6.90;;
1811;SDS011;904;47.814;11.134;2022-12-11T08:13:42;11.80;;;7.35;;
1811;SDS011;904;47.814;11.134;2022-12-11T08:16:12;13.55;;;7.93;;
1811;SDS011;904;47.814;11.134;2022-12-11T08:18:40;9.80;;;7.40;;
1811;SDS011;904;47.814;11.134;2022-12-11T08:21:10;10.88;;;7.22;;
1811;SDS011;904;47.814;11.134;2022-12-11T08:23:39;14.40;;;9.02;;
1811;SDS011;904;47.814;11.134;2022-12-11T08:26:10;12.57;;;8.60;;
1811;SDS011;904;47.814;11.134;2022-12-11T08:28:45;16.90;;;10.40;;
1811;SDS011;904;47.814;11.134;2022-12-11T08:31:13;15.35;;;9.70;;
1811;SDS011;904;47.814;11.134;2022-12-11T08:33:42;13.75;;;8.60;;
1811;SDS011;904;47.814;11.134;2022-12-11T08:36:13;11.85;;;8.20;;
1811;SDS011;904;47.814;11.134;2022-12-11T08:38:45;10.10;;;7.32;;
1811;SDS011;904;47.814;11.134;2022-12-11T08:41:16;10.23;;;5.90;;
1811;SDS011;904;47.814;11.134;2022-12-11T08:43:46;16.95;;;12.10;;
1811;SDS011;904;47.814;11.134;2022-12-11T08:46:13;19.15;;;13.27;;
1811;SDS011;904;47.814;11.134;2022-12-11T08:48:42;35.72;;;22.35;;
1811;SDS011;904;47.814;11.134;2022-12-11T08:51:12;12.05;;;8.02;;
1811;SDS011;904;47.814;11.134;2022-12-11T08:53:42;10.85;;;8.57;;
1811;SDS011;904;47.814;11.134;2022-12-11T08:56:10;12.48;;;8.20;;
1811;SDS011;904;47.814;11.134;2022-12-11T08:58:41;18.40;;;11.43;;
1811;SDS011;904;47.814;11.134;2022-12-11T09:01:10;12.32;;;9.38;;
1811;SDS011;904;47.814;11.134;2022-12-11T09:03:42;12.65;;;8.85;;
1811;SDS011;904;47.814;11.134;2022-12-11T09:06:12;15.93;;;9.70;;
1811;SDS011;904;47.814;11.134;2022-12-11T09:08:41;14.93;;;10.30;;
1811;SDS011;904;47.814;11.134;2022-12-11T09:11:11;14.23;;;9.85;;
1811;SDS011;904;47.814;11.134;2022-12-11T09:13:42;19.98;;;12.27;;
1811;SDS011;904;47.814;11.134;2022-12-11T09:16:11;27.73;;;15.07;;
1811;SDS011;904;47.814;11.134;2022-12-11T09:18:39;19.33;;;11.93;;
1811;SDS011;904;47.814;11.134;2022-12-11T09:21:07;14.90;;;10.05;;
1811;SDS011;904;47.814;11.134;2022-12-11T09:23:37;21.65;;;12.55;;
1811;SDS011;904;47.814;11.134;2022-12-11T09:26:05;20.15;;;13.25;;
1811;SDS011;904;47.814;11.134;2022-12-11T09:28:35;17.23;;;12.43;;
1811;SDS011;904;47.814;11.134;2022-12-11T09:31:08;18.92;;;12.40;;
1811;SDS011;904;47.814;11.134;2022-12-11T09:33:36;19.48;;;10.18;;
1811;SDS011;904;47.814;11.134;2022-12-11T09:36:06;27.55;;;14.20;;
1811;SDS011;904;47.814;11.134;2022-12-11T09:38:34;16.85;;;10.02;;
1811;SDS011;904;47.814;11.134;2022-12-11T09:41:04;14.95;;;10.48;;
1811;SDS011;904;47.814;11.134;2022-12-11T09:43:52;14.68;;;8.52;;
1811;SDS011;904;47.814;11.134;2022-12-11T09:46:29;30.55;;;15.95;;
1811;SDS011;904;47.814;11.134;2022-12-11T09:49:02;25.20;;;14.27;;
1811;SDS011;904;47.814;11.134;2022-12-11T09:51:37;22.77;;;13.82;;
1811;SDS011;904;47.814;11.134;2022-12-11T09:54:19;18.77;;;12.90;;
1811;SDS011;904;47.814;11.134;2022-12-11T09:56:48;21.98;;;14.70;;
1811;SDS011;904;47.814;11.134;2022-12-11T09:59:24;18.52;;;12.88;;
1811;SDS011;904;47.814;11.134;2022-12-11T10:01:58;17.02;;;11.85;;
1811;SDS011;904;47.814;11.134;2022-12-11T10:04:40;20.23;;;13.57;;
1811;SDS011;904;47.814;11.134;2022-12-11T10:07:17;17.15;;;12.10;;
1811;SDS011;904;47.814;11.134;2022-12-11T10:09:57;16.58;;;11.18;;
1811;SDS011;904;47.814;11.134;2022-12-11T10:12:32;29.58;;;19.38;;
1811;SDS011;904;47.814;11.134;2022-12-11T10:15:16;31.90;;;20.33;;
1811;SDS011;904;47.814;11.134;2022-12-11T10:17:56;26.83;;;16.25;;
1811;SDS011;904;47.814;11.134;2022-12-11T10:20:26;19.25;;;13.05;;
1811;SDS011;904;47.814;11.134;2022-12-11T10:22:59;27.27;;;16.33;;
1811;SDS011;904;47.814;11.134;2022-12-11T10:25:28;15.70;;;11.43;;
1811;SDS011;904;47.814;11.134;2022-12-11T10:27:58;14.32;;;10.20;;
1811;SDS011;904;47.814;11.134;2022-12-11T10:30:35;11.50;;;8.43;;
1811;SDS011;904;47.814;11.134;2022-12-11T10:33:08;10.98;;;8.93;;
1811;SDS011;904;47.814;11.134;2022-12-11T10:35:46;13.57;;;9.15;;
1811;SDS011;904;47.814;11.134;2022-12-11T10:38:20;15.07;;;10.43;;
1811;SDS011;904;47.814;11.134;2022-12-11T10:40:53;13.60;;;8.98;;
1811;SDS011;904;47.814;11.134;2022-12-11T10:43:31;12.35;;;8.70;;
1811;SDS011;904;47.814;11.134;2022-12-11T10:45:59;12.93;;;9.73;;
1811;SDS011;904;47.814;11.134;2022-12-11T10:48:28;12.75;;;10.00;;
1811;SDS011;904;47.814;11.134;2022-12-11T10:50:57;11.05;;;9.00;;
1811;SDS011;904;47.814;11.134;2022-12-11T10:53:26;14.32;;;9.65;;
1811;SDS011;904;47.814;11.134;2022-12-11T10:55:54;11.63;;;8.32;;
1811;SDS011;904;47.814;11.134;2022-12-11T10:58:24;13.55;;;9.48;;
1811;SDS011;904;47.814;11.134;2022-12-11T11:01:02;13.18;;;8.75;;
1811;SDS011;904;47.814;11.134;2022-12-11T11:03:50;12.70;;;8.98;;
1811;SDS011;904;47.814;11.134;2022-12-11T11:06:21;15.48;;;12.82;;
1811;SDS011;904;47.814;11.134;2022-12-11T11:08:53;17.10;;;12.93;;
1811;SDS011;904;47.814;11.134;2022-12-11T11:11:25;13.85;;;10.50;;
1811;SDS011;904;47.814;11.134;2022-12-11T11:14:06;13.07;;;9.40;;
1811;SDS011;904;47.814;11.134;2022-12-11T11:16:38;15.90;;;10.38;;
1811;SDS011;904;47.814;11.134;2022-12-11T11:19:14;12.20;;;9.63;;
1811;SDS011;904;47.814;11.134;2022-12-11T11:21:57;13.13;;;9.48;;
1811;SDS011;904;47.814;11.134;2022-12-11T11:24:28;10.90;;;8.50;;
1811;SDS011;904;47.814;11.134;2022-12-11T11:27:00;11.43;;;8.02;;
1811;SDS011;904;47.814;11.134;2022-12-11T11:29:29;11.95;;;8.23;;
1811;SDS011;904;47.814;11.134;2022-12-11T11:32:01;10.48;;;8.43;;
1811;SDS011;904;47.814;11.134;2022-12-11T11:34:41;10.05;;;8.13;;
1811;SDS011;904;47.814;11.134;2022-12-11T11:37:14;13.07;;;8.75;;
1811;SDS011;904;47.814;11.134;2022-12-11T11:39:54;13.48;;;8.30;;
1811;SDS011;904;47.814;11.134;2022-12-11T11:42:32;14.23;;;9.70;;
1811;SDS011;904;47.814;11.134;2022-12-11T11:45:13;11.40;;;7.53;;
1811;SDS011;904;47.814;11.134;2022-12-11T11:47:49;11.20;;;8.63;;
1811;SDS011;904;47.814;11.134;2022-12-11T11:50:25;10.88;;;8.20;;
1811;SDS011;904;47.814;11.134;2022-12-11T11:52:59;11.48;;;8.05;;
1811;SDS011;904;47.814;11.134;2022-12-11T11:55:33;11.20;;;9.15;;
1811;SDS011;904;47.814;11.134;2022-12-11T11:58:07;12.02;;;8.27;;
1811;SDS011;904;47.814;11.134;2022-12-11T12:00:39;10.95;;;8.02;;
1811;SDS011;904;47.814;11.134;2022-12-11T12:03:08;12.93;;;8.50;;
1811;SDS011;904;47.814;11.134;2022-12-11T12:05:42;10.95;;;8.13;;
1811;SDS011;904;47.814;11.134;2022-12-11T12:08:17;11.85;;;9.02;;
1811;SDS011;904;47.814;11.134;2022-12-11T12:10:54;12.38;;;7.50;;
1811;SDS011;904;47.814;11.134;2022-12-11T12:13:30;11.02;;;8.35;;
1811;SDS011;904;47.814;11.134;2022-12-11T12:16:09;9.48;;;6.45;;
1811;SDS011;904;47.814;11.134;2022-12-11T12:18:45;13.02;;;6.70;;
1811;SDS011;904;47.814;11.134;2022-12-11T12:21:26;13.18;;;9.38;;
1811;SDS011;904;47.814;11.134;2022-12-11T12:24:05;16.75;;;10.55;;
1811;SDS011;904;47.814;11.134;2022-12-11T12:26:57;16.33;;;10.57;;
1811;SDS011;904;47.814;11.134;2022-12-11T12:29:30;14.20;;;9.13;;
1811;SDS011;904;47.814;11.134;2022-12-11T12:32:12;11.20;;;8.20;;
1811;SDS011;904;47.814;11.134;2022-12-11T12:34:52;10.88;;;8.43;;
1811;SDS011;904;47.814;11.134;2022-12-11T12:37:33;9.13;;;7.00;;
1811;SDS011;904;47.814;11.134;2022-12-11T12:40:17;11.27;;;9.15;;
1811;SDS011;904;47.814;11.134;2022-12-11T12:43:00;13.40;;;9.75;;
1811;SDS011;904;47.814;11.134;2022-12-11T12:45:36;11.07;;;9.45;;
1811;SDS011;904;47.814;11.134;2022-12-11T12:48:09;11.27;;;9.38;;
1811;SDS011;904;47.814;11.134;2022-12-11T12:50:42;12.48;;;8.00;;
1811;SDS011;904;47.814;11.134;2022-12-11T12:53:15;10.52;;;8.65;;
1811;SDS011;904;47.814;11.134;2022-12-11T12:55:47;10.90;;;8.52;;
1811;SDS011;904;47.814;11.134;2022-12-11T12:58:23;10.85;;;6.70;;
1811;SDS011;904;47.814;11.134;2022-12-11T13:00:52;7.45;;;5.13;;
1811;SDS011;904;47.814;11.134;2022-12-11T13:03:21;6.88;;;4.45;;
1811;SDS011;904;47.814;11.134;2022-12-11T13:05:55;5.80;;;4.50;;
1811;SDS011;904;47.814;11.134;2022-12-11T13:08:27;6.50;;;4.65;;
1811;SDS011;904;47.814;11.134;2022-12-11T13:11:00;6.35;;;4.07;;
1811;SDS011;904;47.814;11.134;2022-12-11T13:13:30;9.00;;;5.13;;
1811;SDS011;904;47.814;11.134;2022-12-11T13:16:07;6.18;;;4.75;;
1811;SDS011;904;47.814;11.134;2022-12-11T13:18:53;8.52;;;4.82;;
1811;SDS011;904;47.814;11.134;2022-12-11T13:21:30;9.20;;;6.13;;
1811;SDS011;904;47.814;11.134;2022-12-11T13:24:14;8.95;;;5.85;;
1811;SDS011;904;47.814;11.134;2022-12-11T13:26:43;10.70;;;7.95;;
1811;SDS011;904;47.814;11.134;2022-12-11T13:29:30;11.45;;;7.53;;
1811;SDS011;904;47.814;11.134;2022-12-11T13:31:59;10.95;;;6.93;;
1811;SDS011;904;47.814;11.134;2022-12-11T13:34:30;9.10;;;6.57;;
1811;SDS011;904;47.814;11.134;2022-12-11T13:36:58;12.02;;;9.05;;
1811;SDS011;904;47.814;11.134;2022-12-11T13:39:30;12.23;;;8.63;;
1811;SDS011;904;47.814;11.134;2022-12-11T13:42:00;13.32;;;10.18;;
1811;SDS011;904;47.814;11.134;2022-12-11T13:44:30;10.52;;;7.68;;
1811;SDS011;904;47.814;11.134;2022-12-11T13:47:03;11.25;;;7.53;;
1811;SDS011;904;47.814;11.134;2022-12-11T13:49:36;18.10;;;8.75;;
1811;SDS011;904;47.814;11.134;2022-12-11T13:52:14;10.35;;;8.15;;
1811;SDS011;904;47.814;11.134;2022-12-11T13:54:49;10.00;;;7.80;;
1811;SDS011;904;47.814;11.134;2022-12-11T13:57:19;11.63;;;7.88;;
1811;SDS011;904;47.814;11.134;2022-12-11T13:59:48;12.70;;;9.05;;
1811;SDS011;904;47.814;11.134;2022-12-11T14:02:18;9.35;;;7.05;;
1811;SDS011;904;47.814;11.134;2022-12-11T14:04:48;11.02;;;8.23;;
1811;SDS011;904;47.814;11.134;2022-12-11T14:07:19;12.30;;;8.50;;
1811;SDS011;904;47.814;11.134;2022-12-11T14:09:58;10.05;;;7.07;;
1811;SDS011;904;47.814;11.134;2022-12-11T14:12:30;11.75;;;7.80;;
1811;SDS011;904;47.814;11.134;2022-12-11T14:14:58;15.20;;;8.15;;
1811;SDS011;904;47.814;11.134;2022-12-11T14:17:29;13.40;;;8.80;;
1811;SDS011;904;47.814;11.134;2022-12-11T14:20:02;11.20;;;7.80;;
1811;SDS011;904;47.814;11.134;2022-12-11T14:22:40;12.27;;;8.80;;
1811;SDS011;904;47.814;11.134;2022-12-11T14:25:19;14.77;;;8.65;;
1811;SDS011;904;47.814;11.134;2022-12-11T14:27:49;10.70;;;8.13;;
1811;SDS011;904;47.814;11.134;2022-12-11T14:30:22;13.10;;;8.02;;
1811;SDS011;904;47.814;11.134;2022-12-11T14:32:52;10.77;;;8.25;;
1811;SDS011;904;47.814;11.134;2022-12-11T14:35:23;11.85;;;8.18;;
1811;SDS011;904;47.814;11.134;2022-12-11T14:37:52;10.77;;;7.90;;
1811;SDS011;904;47.814;11.134;2022-12-11T14:40:28;11.13;;;7.15;;
1811;SDS011;904;47.814;11.134;2022-12-11T14:43:02;13.57;;;8.45;;
1811;SDS011;904;47.814;11.134;2022-12-11T14:45:43;10.80;;;7.68;;
1811;SDS011;904;47.814;11.134;2022-12-11T14:48:12;12.20;;;7.80;;
1811;SDS011;904;47.814;11.134;2022-12-11T14:50:48;12.73;;;7.60;;
1811;SDS011;904;47.814;11.134;2022-12-11T14:53:20;12.40;;;7.75;;
1811;SDS011;904;47.814;11.134;2022-12-11T14:58:44;13.30;;;8.90;;
1811;SDS011;904;47.814;11.134;2022-12-11T15:01:20;10.55;;;7.25;;
1811;SDS011;904;47.814;11.134;2022-12-11T15:04:00;14.05;;;7.95;;
1811;SDS011;904;47.814;11.134;2022-12-11T15:06:32;12.48;;;8.63;;
1811;SDS011;904;47.814;11.134;2022-12-11T15:09:18;12.18;;;7.65;;
1811;SDS011;904;47.814;11.134;2022-12-11T15:11:48;11.73;;;7.65;;
1811;SDS011;904;47.814;11.134;2022-12-11T15:14:17;12.93;;;8.95;;
1811;SDS011;904;47.814;11.134;2022-12-11T15:16:48;14.25;;;8.70;;
1811;SDS011;904;47.814;11.134;2022-12-11T15:19:20;18.10;;;12.30;;
1811;SDS011;904;47.814;11.134;2022-12-11T15:21:53;61.10;;;37.22;;
1811;SDS011;904;47.814;11.134;2022-12-11T15:24:27;24.52;;;15.93;;